createdAt,value
2019-01-31T00:00:18.900Z,1.93
2019-01-31T00:01:18.813Z,1.89
2019-01-31T00:02:18.781Z,1.93
2019-01-31T00:03:18.698Z,1.97
2019-01-31T00:04:18.647Z,1.93
2019-01-31T00:05:18.603Z,1.89
2019-01-31T00:06:18.545Z,1.93
2019-01-31T00:07:18.499Z,1.89
2019-01-31T00:08:18.441Z,2.00
2019-01-31T00:09:18.390Z,1.93
2019-01-31T00:10:18.339Z,2.00
2019-01-31T00:11:18.296Z,1.92
2019-01-31T00:12:18.238Z,1.93
2019-01-31T00:13:18.185Z,1.92
2019-01-31T00:14:18.137Z,1.92
2019-01-31T00:15:18.087Z,1.89
2019-01-31T00:16:18.033Z,1.92
2019-01-31T00:17:17.983Z,1.95
2019-01-31T00:18:17.932Z,1.95
2019-01-31T00:19:17.893Z,1.89
2019-01-31T00:20:17.826Z,1.78
2019-01-31T00:21:17.823Z,1.88
2019-01-31T00:22:17.722Z,1.76
2019-01-31T00:23:17.672Z,1.75
2019-01-31T00:24:17.622Z,1.82
2019-01-31T00:25:17.584Z,1.75
2019-01-31T00:26:17.520Z,1.75
2019-01-31T00:27:17.468Z,1.70
2019-01-31T00:28:17.419Z,1.79
2019-01-31T00:29:17.367Z,1.76
2019-01-31T00:30:17.313Z,1.81
2019-01-31T00:31:17.267Z,1.68
2019-01-31T00:32:17.210Z,1.67
2019-01-31T00:33:17.163Z,1.66
2019-01-31T00:34:17.107Z,1.67
2019-01-31T00:35:17.054Z,1.70
2019-01-31T00:36:17.002Z,1.64
2019-01-31T00:37:16.956Z,1.58
2019-01-31T00:38:16.904Z,1.57
2019-01-31T00:39:16.856Z,1.63
2019-01-31T00:40:16.813Z,1.64
2019-01-31T00:41:16.748Z,1.60
2019-01-31T00:42:16.695Z,1.56
2019-01-31T00:43:16.648Z,1.56
2019-01-31T00:44:16.592Z,1.58
2019-01-31T00:45:16.542Z,1.53
2019-01-31T00:46:16.490Z,1.58
2019-01-31T00:47:16.437Z,1.48
2019-01-31T00:48:16.385Z,1.46
2019-01-31T00:49:16.336Z,1.50
2019-01-31T00:50:16.287Z,1.42
2019-01-31T00:51:16.232Z,1.42
2019-01-31T00:52:16.180Z,1.49
2019-01-31T00:53:16.131Z,1.40
2019-01-31T00:54:16.081Z,1.46
2019-01-31T00:55:16.035Z,1.36
2019-01-31T00:56:15.979Z,1.40
2019-01-31T00:57:15.921Z,1.46
2019-01-31T00:58:15.882Z,1.43
2019-01-31T00:59:15.821Z,1.34
2019-01-31T01:00:15.768Z,1.39
2019-01-31T01:01:15.717Z,1.31
2019-01-31T01:02:15.665Z,1.25
2019-01-31T01:03:15.617Z,1.27
2019-01-31T01:04:15.566Z,1.30
2019-01-31T01:05:15.511Z,1.25
2019-01-31T01:06:15.462Z,1.27
2019-01-31T01:07:15.406Z,1.25
2019-01-31T01:08:15.355Z,1.14
2019-01-31T01:09:15.302Z,1.22
2019-01-31T01:10:15.270Z,1.25
2019-01-31T01:11:15.199Z,1.20
2019-01-31T01:12:15.153Z,1.22
2019-01-31T01:13:15.097Z,1.20
2019-01-31T01:14:15.048Z,1.28
2019-01-31T01:15:15.000Z,1.16
2019-01-31T01:16:14.942Z,1.14
2019-01-31T01:17:14.893Z,1.16
2019-01-31T01:18:14.840Z,1.14
2019-01-31T01:19:14.789Z,1.12
2019-01-31T01:20:14.738Z,1.12
2019-01-31T01:21:14.699Z,1.18
2019-01-31T01:22:14.645Z,1.10
2019-01-31T01:23:14.579Z,1.10
2019-01-31T01:24:14.529Z,1.02
2019-01-31T01:25:14.481Z,1.10
2019-01-31T01:26:14.427Z,1.04
2019-01-31T01:27:14.374Z,1.06
2019-01-31T01:28:14.320Z,1.07
2019-01-31T01:29:14.272Z,1.02
2019-01-31T01:30:14.220Z,1.02
2019-01-31T01:31:14.181Z,1.03
2019-01-31T01:32:14.114Z,1.04
2019-01-31T01:33:14.064Z,1.03
2019-01-31T01:34:14.009Z,0.95
2019-01-31T01:35:13.962Z,1.03
2019-01-31T01:36:13.906Z,1.03
2019-01-31T01:37:13.854Z,1.04
2019-01-31T01:38:13.809Z,1.13
2019-01-31T01:39:19.276Z,1.04
2019-01-31T01:40:13.699Z,0.95
2019-01-31T01:41:13.650Z,1.04
2019-01-31T01:42:13.598Z,0.94
2019-01-31T01:43:14.523Z,1.00
2019-01-31T01:44:13.495Z,0.94
2019-01-31T01:45:13.438Z,1.02
2019-01-31T01:46:13.393Z,1.00
2019-01-31T01:47:13.344Z,0.94
2019-01-31T01:48:13.288Z,1.06
2019-01-31T01:49:13.236Z,1.06
2019-01-31T01:50:13.189Z,0.95
2019-01-31T01:51:13.128Z,1.00
2019-01-31T01:52:13.080Z,1.06
2019-01-31T01:53:13.035Z,1.00
2019-01-31T01:54:12.980Z,1.12
2019-01-31T01:55:12.931Z,1.09
2019-01-31T01:56:12.877Z,1.03
2019-01-31T01:57:12.850Z,0.99
2019-01-31T01:58:12.782Z,1.04
2019-01-31T01:59:12.714Z,0.99
2019-01-31T02:00:12.669Z,0.92
2019-01-31T02:01:12.611Z,1.02
2019-01-31T02:02:12.562Z,1.00
2019-01-31T02:03:12.507Z,1.07
2019-01-31T02:04:12.455Z,0.99
2019-01-31T02:05:12.406Z,0.92
2019-01-31T02:06:12.352Z,1.07
2019-01-31T02:07:12.299Z,0.91
2019-01-31T02:08:12.251Z,1.02
2019-01-31T02:09:12.199Z,1.00
2019-01-31T02:10:12.144Z,0.92
2019-01-31T02:11:12.092Z,0.91
2019-01-31T02:12:12.041Z,0.91
2019-01-31T02:13:11.993Z,0.92
2019-01-31T02:14:11.936Z,0.94
2019-01-31T02:15:11.884Z,0.94
2019-01-31T02:16:11.937Z,0.96
2019-01-31T02:17:11.789Z,0.94
2019-01-31T02:18:11.733Z,0.99
2019-01-31T02:19:11.677Z,0.91
2019-01-31T02:20:11.624Z,1.00
2019-01-31T02:21:11.577Z,0.94
2019-01-31T02:22:11.524Z,0.92
2019-01-31T02:23:11.469Z,0.88
2019-01-31T02:24:11.422Z,0.89
2019-01-31T02:25:11.365Z,0.86
2019-01-31T02:26:11.317Z,0.86
2019-01-31T02:27:11.266Z,0.84
2019-01-31T02:28:11.218Z,0.78
2019-01-31T02:29:11.157Z,0.81
2019-01-31T02:30:11.112Z,0.86
2019-01-31T02:31:11.056Z,0.84
2019-01-31T02:32:11.005Z,0.88
2019-01-31T02:33:10.954Z,0.82
2019-01-31T02:34:10.909Z,0.73
2019-01-31T02:35:10.848Z,0.71
2019-01-31T02:36:10.799Z,0.85
2019-01-31T02:37:10.743Z,0.81
2019-01-31T02:38:10.690Z,0.76
2019-01-31T02:39:10.638Z,0.85
2019-01-31T02:40:10.586Z,0.84
2019-01-31T02:41:10.538Z,0.81
2019-01-31T02:42:10.482Z,0.84
2019-01-31T02:43:10.430Z,0.77
2019-01-31T02:44:10.473Z,0.74
2019-01-31T02:45:10.326Z,0.81
2019-01-31T02:46:10.289Z,0.73
2019-01-31T02:47:10.229Z,0.73
2019-01-31T02:48:10.177Z,0.74
2019-01-31T02:49:10.119Z,0.78
2019-01-31T02:50:10.066Z,0.73
2019-01-31T02:51:10.013Z,0.70
2019-01-31T02:52:09.961Z,0.64
2019-01-31T02:53:09.915Z,0.68
2019-01-31T02:54:09.858Z,0.67
2019-01-31T02:55:09.808Z,0.63
2019-01-31T02:56:09.756Z,0.73
2019-01-31T02:57:09.703Z,0.68
2019-01-31T02:58:09.655Z,0.61
2019-01-31T02:59:09.603Z,0.68
2019-01-31T03:00:09.543Z,0.63
2019-01-31T03:01:09.498Z,0.67
2019-01-31T03:02:09.442Z,0.63
2019-01-31T03:03:09.399Z,0.59
2019-01-31T03:04:09.338Z,0.59
2019-01-31T03:05:09.288Z,0.63
2019-01-31T03:06:09.236Z,0.64
2019-01-31T03:07:09.187Z,0.67
2019-01-31T03:08:09.132Z,0.63
2019-01-31T03:09:09.081Z,0.67
2019-01-31T03:10:09.033Z,0.59
2019-01-31T03:11:09.015Z,0.58
2019-01-31T03:12:08.927Z,0.63
2019-01-31T03:13:08.878Z,0.59
2019-01-31T03:14:10.279Z,0.67
2019-01-31T03:15:08.771Z,0.55
2019-01-31T03:16:08.712Z,0.64
2019-01-31T03:17:10.010Z,0.56
2019-01-31T03:18:08.612Z,0.58
2019-01-31T03:19:08.560Z,0.55
2019-01-31T03:20:08.508Z,0.52
2019-01-31T03:21:08.452Z,0.49
2019-01-31T03:22:08.402Z,0.51
2019-01-31T03:23:08.367Z,0.56
2019-01-31T03:24:08.299Z,0.56
2019-01-31T03:25:08.244Z,0.48
2019-01-31T03:26:08.192Z,0.49
2019-01-31T03:27:08.141Z,0.48
2019-01-31T03:28:08.091Z,0.49
2019-01-31T03:29:08.039Z,0.48
2019-01-31T03:30:07.991Z,0.52
2019-01-31T03:31:07.935Z,0.55
2019-01-31T03:32:07.897Z,0.48
2019-01-31T03:33:07.863Z,0.48
2019-01-31T03:34:07.777Z,0.55
2019-01-31T03:35:07.727Z,0.48
2019-01-31T03:36:07.677Z,0.52
2019-01-31T03:37:07.624Z,0.47
2019-01-31T03:38:07.568Z,0.52
2019-01-31T03:39:07.523Z,0.51
2019-01-31T03:40:07.658Z,0.55
2019-01-31T03:41:07.412Z,0.49
2019-01-31T03:42:07.365Z,0.45
2019-01-31T03:43:07.320Z,0.48
2019-01-31T03:44:07.270Z,0.49
2019-01-31T03:45:07.205Z,0.49
2019-01-31T03:46:07.157Z,0.48
2019-01-31T03:47:07.105Z,0.39
2019-01-31T03:48:07.164Z,0.36
2019-01-31T03:49:06.998Z,0.33
2019-01-31T03:50:07.225Z,0.39
2019-01-31T03:51:06.894Z,0.39
2019-01-31T03:52:06.849Z,0.30
2019-01-31T03:53:06.808Z,0.39
2019-01-31T03:54:06.774Z,0.34
2019-01-31T03:55:06.691Z,0.37
2019-01-31T03:56:06.633Z,0.36
2019-01-31T03:57:06.586Z,0.37
2019-01-31T03:58:06.535Z,0.34
2019-01-31T03:59:06.477Z,0.39
2019-01-31T04:00:06.428Z,0.39
2019-01-31T04:01:06.376Z,0.37
2019-01-31T04:02:06.320Z,0.34
2019-01-31T04:03:06.272Z,0.37
2019-01-31T04:04:06.220Z,0.36
2019-01-31T04:05:06.168Z,0.36
2019-01-31T04:06:06.117Z,0.31
2019-01-31T04:07:06.068Z,0.36
2019-01-31T04:08:06.008Z,0.31
2019-01-31T04:09:05.957Z,0.24
2019-01-31T04:10:05.916Z,0.29
2019-01-31T04:11:05.857Z,0.23
2019-01-31T04:12:05.804Z,0.39
2019-01-31T04:13:05.751Z,0.27
2019-01-31T04:14:05.701Z,0.26
2019-01-31T04:15:05.659Z,0.27
2019-01-31T04:16:05.597Z,0.24
2019-01-31T04:17:05.539Z,0.24
2019-01-31T04:18:10.343Z,0.27
2019-01-31T04:19:05.442Z,0.23
2019-01-31T04:20:05.385Z,0.29
2019-01-31T04:21:05.339Z,0.23
2019-01-31T04:22:05.277Z,0.29
2019-01-31T04:23:05.226Z,0.26
2019-01-31T04:24:05.176Z,0.27
2019-01-31T04:25:05.134Z,0.19
2019-01-31T04:26:05.070Z,0.09
2019-01-31T04:27:05.022Z,0.23
2019-01-31T04:28:04.967Z,0.05
2019-01-31T04:29:04.927Z,0.12
2019-01-31T04:30:04.876Z,0.15
2019-01-31T04:31:04.832Z,0.12
2019-01-31T04:32:04.844Z,0.11
2019-01-31T04:33:04.709Z,0.18
2019-01-31T04:34:04.657Z,0.15
2019-01-31T04:35:04.602Z,0.08
2019-01-31T04:36:04.553Z,0.13
2019-01-31T04:37:04.500Z,0.20
2019-01-31T04:38:04.447Z,0.15
2019-01-31T04:39:04.400Z,0.15
2019-01-31T04:40:04.343Z,0.13
2019-01-31T04:41:04.293Z,0.18
2019-01-31T04:42:04.237Z,0.19
2019-01-31T04:43:04.187Z,0.12
2019-01-31T04:44:04.139Z,0.08
2019-01-31T04:45:04.091Z,0.18
2019-01-31T04:46:04.030Z,0.16
2019-01-31T04:47:03.978Z,0.16
2019-01-31T04:48:03.927Z,0.08
2019-01-31T04:49:03.875Z,0.05
2019-01-31T04:50:03.827Z,0.12
2019-01-31T04:51:03.767Z,0.09
2019-01-31T04:52:03.714Z,0.02
2019-01-31T04:53:03.665Z,0.11
2019-01-31T04:54:03.614Z,0.06
2019-01-31T04:55:03.560Z,0.01
2019-01-31T04:56:03.509Z,0.12
2019-01-31T04:57:03.461Z,0.09
2019-01-31T04:58:03.405Z,0.02
2019-01-31T04:59:03.356Z,0.08
2019-01-31T05:00:03.317Z,0.11
2019-01-31T05:01:03.244Z,0.09
2019-01-31T05:02:03.196Z,0.09
2019-01-31T05:03:03.141Z,0.08
2019-01-31T05:04:03.088Z,0.06
2019-01-31T05:05:03.039Z,0.02
2019-01-31T05:06:02.985Z,0.06
2019-01-31T05:07:02.937Z,0.11
2019-01-31T05:08:02.886Z,0.08
2019-01-31T05:09:02.856Z,-0.05
2019-01-31T05:10:02.790Z,-0.02
2019-01-31T05:11:02.732Z,0.02
2019-01-31T05:12:02.678Z,0.00
2019-01-31T05:13:02.617Z,-0.03
2019-01-31T05:14:02.565Z,-0.03
2019-01-31T05:15:02.533Z,-0.03
2019-01-31T05:16:03.769Z,-0.02
2019-01-31T05:17:02.410Z,-0.06
2019-01-31T05:18:02.360Z,-0.07
2019-01-31T05:19:02.309Z,0.01
2019-01-31T05:20:02.255Z,-0.05
2019-01-31T05:21:02.202Z,0.00
2019-01-31T05:22:02.160Z,-0.03
2019-01-31T05:23:02.102Z,-0.05
2019-01-31T05:24:02.046Z,-0.05
2019-01-31T05:25:01.992Z,0.00
2019-01-31T05:26:01.943Z,-0.02
2019-01-31T05:27:04.399Z,-0.02
2019-01-31T05:28:01.836Z,-0.10
2019-01-31T05:29:01.796Z,-0.03
2019-01-31T05:30:01.732Z,0.00
2019-01-31T05:31:01.708Z,-0.05
2019-01-31T05:32:01.627Z,-0.03
2019-01-31T05:33:01.574Z,0.01
2019-01-31T05:34:01.521Z,-0.07
2019-01-31T05:35:01.476Z,-0.03
2019-01-31T05:36:01.415Z,-0.09
2019-01-31T05:37:01.366Z,-0.07
2019-01-31T05:38:01.311Z,-0.05
2019-01-31T05:39:01.264Z,-0.12
2019-01-31T05:40:01.210Z,-0.07
2019-01-31T05:41:01.156Z,-0.09
2019-01-31T05:42:01.106Z,-0.03
2019-01-31T05:43:01.050Z,-0.09
2019-01-31T05:44:00.998Z,-0.13
2019-01-31T05:45:00.947Z,-0.10
2019-01-31T05:46:00.898Z,-0.05
2019-01-31T05:47:00.845Z,-0.12
2019-01-31T05:48:00.791Z,-0.03
2019-01-31T05:49:00.741Z,-0.10
2019-01-31T05:50:00.684Z,-0.18
2019-01-31T05:51:00.636Z,-0.15
2019-01-31T05:52:00.582Z,-0.17
2019-01-31T05:53:00.526Z,-0.15
2019-01-31T05:54:00.478Z,-0.13
2019-01-31T05:55:00.427Z,-0.15
2019-01-31T05:56:00.375Z,-0.15
2019-01-31T05:57:00.318Z,-0.15
2019-01-31T05:58:00.263Z,-0.15
2019-01-31T05:59:00.213Z,-0.17
2019-01-31T06:00:00.312Z,-0.23
2019-01-31T06:01:00.108Z,-0.20
2019-01-31T06:02:00.079Z,-0.12
2019-01-31T06:03:00.004Z,-0.12
2019-01-31T06:03:59.962Z,-0.20
2019-01-31T06:04:59.910Z,-0.12
2019-01-31T06:05:59.846Z,-0.15
2019-01-31T06:07:10.699Z,-0.10
2019-01-31T06:07:59.744Z,-0.20
2019-01-31T06:08:59.689Z,-0.12
2019-01-31T06:09:59.635Z,-0.17
2019-01-31T06:11:07.270Z,-0.18
2019-01-31T06:11:59.533Z,-0.18
2019-01-31T06:12:59.477Z,-0.18
2019-01-31T06:13:59.430Z,-0.24
2019-01-31T06:14:59.377Z,-0.23
2019-01-31T06:15:59.322Z,-0.24
2019-01-31T06:16:59.270Z,-0.15
2019-01-31T06:17:59.223Z,-0.20
2019-01-31T06:18:59.170Z,-0.24
2019-01-31T06:19:59.111Z,-0.17
2019-01-31T06:20:59.068Z,-0.21
2019-01-31T06:21:59.008Z,-0.17
2019-01-31T06:22:58.965Z,-0.23
2019-01-31T06:23:58.902Z,-0.13
2019-01-31T06:24:58.854Z,-0.15
2019-01-31T06:25:58.803Z,-0.23
2019-01-31T06:26:58.748Z,-0.13
2019-01-31T06:27:58.697Z,-0.26
2019-01-31T06:28:58.646Z,-0.18
2019-01-31T06:29:58.588Z,-0.21
2019-01-31T06:30:58.543Z,-0.13
2019-01-31T06:31:58.486Z,-0.17
2019-01-31T06:32:58.438Z,-0.21
2019-01-31T06:33:58.379Z,-0.23
2019-01-31T06:34:58.330Z,-0.23
2019-01-31T06:35:58.277Z,-0.24
2019-01-31T06:36:58.223Z,-0.21
2019-01-31T06:37:58.206Z,-0.28
2019-01-31T06:38:58.116Z,-0.30
2019-01-31T06:39:58.069Z,-0.21
2019-01-31T06:40:58.017Z,-0.33
2019-01-31T06:41:57.961Z,-0.26
2019-01-31T06:42:57.909Z,-0.31
2019-01-31T06:43:57.855Z,-0.26
2019-01-31T06:44:57.806Z,-0.27
2019-01-31T06:45:57.758Z,-0.33
2019-01-31T06:46:57.698Z,-0.31
2019-01-31T06:47:57.670Z,-0.31
2019-01-31T06:48:57.600Z,-0.31
2019-01-31T06:49:57.541Z,-0.42
2019-01-31T06:50:57.490Z,-0.39
2019-01-31T06:51:57.440Z,-0.41
2019-01-31T06:52:58.216Z,-0.42
2019-01-31T06:53:57.341Z,-0.41
2019-01-31T06:54:57.285Z,-0.42
2019-01-31T06:55:57.232Z,-0.44
2019-01-31T06:56:57.181Z,-0.36
2019-01-31T06:57:57.129Z,-0.44
2019-01-31T06:58:57.073Z,-0.46
2019-01-31T06:59:57.018Z,-0.44
2019-01-31T07:00:56.980Z,-0.38
2019-01-31T07:01:56.931Z,-0.46
2019-01-31T07:02:56.863Z,-0.44
2019-01-31T07:03:56.810Z,-0.36
2019-01-31T07:04:56.757Z,-0.46
2019-01-31T07:05:56.704Z,-0.28
2019-01-31T07:06:56.652Z,-0.38
2019-01-31T07:07:56.603Z,-0.36
2019-01-31T07:08:56.554Z,-0.44
2019-01-31T07:09:56.506Z,-0.39
2019-01-31T07:10:56.444Z,-0.45
2019-01-31T07:11:56.393Z,-0.46
2019-01-31T07:12:56.354Z,-0.46
2019-01-31T07:13:56.290Z,-0.35
2019-01-31T07:14:56.243Z,-0.44
2019-01-31T07:15:56.179Z,-0.45
2019-01-31T07:16:56.127Z,-0.45
2019-01-31T07:17:56.075Z,-0.39
2019-01-31T07:18:56.026Z,-0.45
2019-01-31T07:19:56.574Z,-0.33
2019-01-31T07:20:55.935Z,-0.39
2019-01-31T07:21:55.877Z,-0.41
2019-01-31T07:22:55.834Z,-0.44
2019-01-31T07:23:55.765Z,-0.46
2019-01-31T07:24:55.708Z,-0.41
2019-01-31T07:25:55.660Z,-0.38
2019-01-31T07:26:55.604Z,-0.39
2019-01-31T07:27:55.553Z,-0.38
2019-01-31T07:28:55.498Z,-0.38
2019-01-31T07:29:55.447Z,-0.41
2019-01-31T07:30:55.399Z,-0.46
2019-01-31T07:31:55.345Z,-0.39
2019-01-31T07:32:55.296Z,-0.46
2019-01-31T07:33:55.244Z,-0.44
2019-01-31T07:34:55.187Z,-0.41
2019-01-31T07:35:55.140Z,-0.35
2019-01-31T07:36:55.082Z,-0.33
2019-01-31T07:37:55.030Z,-0.46
2019-01-31T07:38:54.981Z,-0.41
2019-01-31T07:39:54.926Z,-0.45
2019-01-31T07:40:54.870Z,-0.46
2019-01-31T07:41:54.827Z,-0.41
2019-01-31T07:42:54.791Z,-0.46
2019-01-31T07:43:54.715Z,-0.42
2019-01-31T07:44:54.662Z,-0.39
2019-01-31T07:45:54.611Z,-0.45
2019-01-31T07:46:54.558Z,-0.44
2019-01-31T07:47:54.510Z,-0.44
2019-01-31T07:48:54.452Z,-0.38
2019-01-31T07:49:54.399Z,-0.42
2019-01-31T07:50:54.351Z,-0.44
2019-01-31T07:51:54.301Z,-0.42
2019-01-31T07:52:54.243Z,-0.36
2019-01-31T07:53:54.192Z,-0.33
2019-01-31T07:54:54.138Z,-0.38
2019-01-31T07:55:54.088Z,-0.38
2019-01-31T07:56:54.038Z,-0.35
2019-01-31T07:57:53.983Z,-0.35
2019-01-31T07:58:53.930Z,-0.28
2019-01-31T07:59:53.881Z,-0.33
2019-01-31T08:00:53.828Z,-0.26
2019-01-31T08:01:53.772Z,-0.31
2019-01-31T08:02:53.723Z,-0.24
2019-01-31T08:04:02.155Z,-0.23
2019-01-31T08:04:53.615Z,-0.18
2019-01-31T08:05:53.561Z,-0.21
2019-01-31T08:06:53.515Z,-0.10
2019-01-31T08:07:53.460Z,-0.17
2019-01-31T08:08:53.405Z,-0.17
2019-01-31T08:09:56.021Z,-0.17
2019-01-31T08:10:53.302Z,-0.13
2019-01-31T08:11:53.251Z,-0.10
2019-01-31T08:12:53.198Z,-0.02
2019-01-31T08:13:53.144Z,-0.02
2019-01-31T08:14:53.094Z,0.00
2019-01-31T08:15:53.043Z,-0.06
2019-01-31T08:16:52.989Z,-0.05
2019-01-31T08:17:52.957Z,0.08
2019-01-31T08:18:52.888Z,0.02
2019-01-31T08:19:52.830Z,0.08
2019-01-31T08:20:52.794Z,0.09
2019-01-31T08:21:52.730Z,0.18
2019-01-31T08:22:52.680Z,0.11
2019-01-31T08:23:52.623Z,0.15
2019-01-31T08:24:52.575Z,0.12
2019-01-31T08:25:52.521Z,0.19
2019-01-31T08:26:52.466Z,0.15
2019-01-31T08:27:52.418Z,0.15
2019-01-31T08:28:52.362Z,0.16
2019-01-31T08:29:52.311Z,0.18
2019-01-31T08:30:52.263Z,0.26
2019-01-31T08:31:52.204Z,0.27
2019-01-31T08:32:52.155Z,0.27
2019-01-31T08:33:52.104Z,0.19
2019-01-31T08:34:52.053Z,0.31
2019-01-31T08:35:51.997Z,0.27
2019-01-31T08:36:51.944Z,0.40
2019-01-31T08:37:51.899Z,0.37
2019-01-31T08:38:51.841Z,0.45
2019-01-31T08:39:51.788Z,0.48
2019-01-31T08:40:51.739Z,0.48
2019-01-31T08:41:51.688Z,0.55
2019-01-31T08:42:51.637Z,0.59
2019-01-31T08:43:51.582Z,0.66
2019-01-31T08:44:51.530Z,0.68
2019-01-31T08:45:51.477Z,0.67
2019-01-31T08:46:51.433Z,0.71
2019-01-31T08:47:51.377Z,0.77
2019-01-31T08:48:51.325Z,0.81
2019-01-31T08:49:51.269Z,0.81
2019-01-31T08:50:51.219Z,0.89
2019-01-31T08:51:51.167Z,0.89
2019-01-31T08:52:51.125Z,0.96
2019-01-31T08:53:51.065Z,0.99
2019-01-31T08:54:51.072Z,1.00
2019-01-31T08:55:50.963Z,1.00
2019-01-31T08:56:50.926Z,0.91
2019-01-31T08:57:50.867Z,1.03
2019-01-31T08:58:50.825Z,1.06
2019-01-31T08:59:50.754Z,1.14
2019-01-31T09:00:50.701Z,1.14
2019-01-31T09:01:50.660Z,1.14
2019-01-31T09:02:50.691Z,1.21
2019-01-31T09:03:50.635Z,1.27
2019-01-31T09:04:50.524Z,1.30
2019-01-31T09:05:50.442Z,1.36
2019-01-31T09:06:50.394Z,1.22
2019-01-31T09:07:50.347Z,1.34
2019-01-31T09:08:50.297Z,1.43
2019-01-31T09:09:50.240Z,1.42
2019-01-31T09:10:50.192Z,1.45
2019-01-31T09:11:50.141Z,1.50
2019-01-31T09:12:50.083Z,1.52
2019-01-31T09:13:50.039Z,1.52
2019-01-31T09:14:49.982Z,1.58
2019-01-31T09:15:49.930Z,1.56
2019-01-31T09:16:49.876Z,1.63
2019-01-31T09:17:49.828Z,1.71
2019-01-31T09:18:49.774Z,1.63
2019-01-31T09:19:49.722Z,1.74
2019-01-31T09:20:49.673Z,1.71
2019-01-31T09:21:49.619Z,1.68
2019-01-31T09:22:49.573Z,1.75
2019-01-31T09:23:49.518Z,1.86
2019-01-31T09:24:49.464Z,1.84
2019-01-31T09:25:49.417Z,1.92
2019-01-31T09:26:49.366Z,1.95
2019-01-31T09:27:49.320Z,1.92
2019-01-31T09:28:49.261Z,1.89
2019-01-31T09:29:49.210Z,1.95
2019-01-31T09:30:49.159Z,1.97
2019-01-31T09:31:49.112Z,2.05
2019-01-31T09:32:49.063Z,1.93
2019-01-31T09:33:49.007Z,1.95
2019-01-31T09:34:48.954Z,1.93
2019-01-31T09:35:48.908Z,2.05
2019-01-31T09:36:48.866Z,2.08
2019-01-31T09:37:48.820Z,2.10
2019-01-31T09:38:48.755Z,2.10
2019-01-31T09:39:48.698Z,2.10
2019-01-31T09:40:48.647Z,2.14
2019-01-31T09:41:48.601Z,2.19
2019-01-31T09:42:48.547Z,2.26
2019-01-31T09:43:48.496Z,2.21
2019-01-31T09:44:48.443Z,2.22
2019-01-31T09:45:48.396Z,2.26
2019-01-31T09:46:48.349Z,2.30
2019-01-31T09:47:48.293Z,2.33
2019-01-31T09:48:48.265Z,2.22
2019-01-31T09:49:48.194Z,2.22
2019-01-31T09:50:48.138Z,2.28
2019-01-31T09:51:48.089Z,2.40
2019-01-31T09:52:48.035Z,2.33
2019-01-31T09:53:47.985Z,2.25
2019-01-31T09:54:47.936Z,2.37
2019-01-31T09:55:47.891Z,2.28
2019-01-31T09:56:47.832Z,2.39
2019-01-31T09:57:47.780Z,2.32
2019-01-31T09:58:47.735Z,2.28
2019-01-31T09:59:47.679Z,2.30
2019-01-31T10:00:47.634Z,2.18
2019-01-31T10:01:47.579Z,2.26
2019-01-31T10:02:47.529Z,2.23
2019-01-31T10:03:47.539Z,2.30
2019-01-31T10:04:47.431Z,2.23
2019-01-31T10:05:47.375Z,2.30
2019-01-31T10:06:47.323Z,2.30
2019-01-31T10:07:47.272Z,2.21
2019-01-31T10:08:47.227Z,2.19
2019-01-31T10:09:47.176Z,2.23
2019-01-31T10:10:47.140Z,2.30
2019-01-31T10:11:47.161Z,2.30
2019-01-31T10:12:47.106Z,2.28
2019-01-31T10:13:46.988Z,2.30
2019-01-31T10:14:46.920Z,2.32
2019-01-31T10:15:46.891Z,2.34
2019-01-31T10:16:47.118Z,2.33
2019-01-31T10:17:46.861Z,2.28
2019-01-31T10:18:46.760Z,2.33
2019-01-31T10:19:46.673Z,2.34
2019-01-31T10:20:46.735Z,2.46
2019-01-31T10:21:46.564Z,2.36
2019-01-31T10:22:46.559Z,2.40
2019-01-31T10:23:46.462Z,2.44
2019-01-31T10:24:46.482Z,2.39
2019-01-31T10:25:46.358Z,2.54
2019-01-31T10:26:46.311Z,2.41
2019-01-31T10:27:46.257Z,2.55
2019-01-31T10:28:46.202Z,2.52
2019-01-31T10:29:46.158Z,2.57
2019-01-31T10:30:46.101Z,2.58
2019-01-31T10:31:46.051Z,2.61
2019-01-31T10:32:46.008Z,2.57
2019-01-31T10:33:45.954Z,2.62
2019-01-31T10:34:45.899Z,2.55
2019-01-31T10:35:45.850Z,2.73
2019-01-31T10:36:45.800Z,2.72
2019-01-31T10:37:45.748Z,2.68
2019-01-31T10:38:45.695Z,2.77
2019-01-31T10:39:45.646Z,2.70
2019-01-31T10:40:45.599Z,2.76
2019-01-31T10:41:45.553Z,2.79
2019-01-31T10:42:51.887Z,2.76
2019-01-31T10:43:45.445Z,2.87
2019-01-31T10:44:45.400Z,2.83
2019-01-31T10:45:45.345Z,2.88
2019-01-31T10:46:45.297Z,2.90
2019-01-31T10:47:45.245Z,2.88
2019-01-31T10:48:45.190Z,2.93
2019-01-31T10:49:45.141Z,3.00
2019-01-31T10:50:45.090Z,3.00
2019-01-31T10:51:45.040Z,2.97
2019-01-31T10:52:44.987Z,3.11
2019-01-31T10:53:44.938Z,3.00
2019-01-31T10:54:44.899Z,3.18
2019-01-31T10:55:44.838Z,3.15
2019-01-31T10:56:44.789Z,3.15
2019-01-31T10:57:44.734Z,3.16
2019-01-31T10:58:44.686Z,3.22
2019-01-31T10:59:44.633Z,3.29
2019-01-31T11:00:44.585Z,3.27
2019-01-31T11:01:44.538Z,3.27
2019-01-31T11:02:44.484Z,3.27
2019-01-31T11:03:44.434Z,3.37
2019-01-31T11:04:44.389Z,3.36
2019-01-31T11:05:44.332Z,3.41
2019-01-31T11:06:44.284Z,3.45
2019-01-31T11:07:44.234Z,3.50
2019-01-31T11:08:44.180Z,3.45
2019-01-31T11:09:44.132Z,3.40
2019-01-31T11:10:44.081Z,3.45
2019-01-31T11:11:44.029Z,3.48
2019-01-31T11:12:43.990Z,3.49
2019-01-31T11:13:43.954Z,3.56
2019-01-31T11:14:43.904Z,3.56
2019-01-31T11:15:43.830Z,3.66
2019-01-31T11:16:43.786Z,3.66
2019-01-31T11:17:43.730Z,3.63
2019-01-31T11:18:43.681Z,3.68
2019-01-31T11:19:43.633Z,3.77
2019-01-31T11:20:43.579Z,3.85
2019-01-31T11:21:43.532Z,3.85
2019-01-31T11:22:43.480Z,3.85
2019-01-31T11:23:43.429Z,3.84
2019-01-31T11:24:43.378Z,3.88
2019-01-31T11:25:43.336Z,3.84
2019-01-31T11:26:43.283Z,3.85
2019-01-31T11:27:43.234Z,3.85
2019-01-31T11:28:43.185Z,3.78
2019-01-31T11:29:43.131Z,3.89
2019-01-31T11:30:43.078Z,3.78
2019-01-31T11:31:43.027Z,3.81
2019-01-31T11:32:42.979Z,3.77
2019-01-31T11:33:42.932Z,3.71
2019-01-31T11:34:42.880Z,3.68
2019-01-31T11:35:42.832Z,3.52
2019-01-31T11:36:42.779Z,3.58
2019-01-31T11:37:42.728Z,3.56
2019-01-31T11:38:42.683Z,3.58
2019-01-31T11:39:42.628Z,3.58
2019-01-31T11:40:42.579Z,3.59
2019-01-31T11:41:42.534Z,3.53
2019-01-31T11:42:42.485Z,3.58
2019-01-31T11:43:42.427Z,3.52
2019-01-31T11:44:42.396Z,3.64
2019-01-31T11:45:42.331Z,3.56
2019-01-31T11:46:42.282Z,3.58
2019-01-31T11:47:42.231Z,3.53
2019-01-31T11:48:42.182Z,3.66
2019-01-31T11:49:42.134Z,3.63
2019-01-31T11:50:42.082Z,3.61
2019-01-31T11:51:42.029Z,3.58
2019-01-31T11:52:41.985Z,3.61
2019-01-31T11:53:41.929Z,3.55
2019-01-31T11:54:41.886Z,3.68
2019-01-31T11:55:41.837Z,3.71
2019-01-31T11:56:41.802Z,3.78
2019-01-31T11:57:41.730Z,3.85
2019-01-31T11:58:41.684Z,3.82
2019-01-31T11:59:41.630Z,3.86
2019-01-31T12:00:41.578Z,3.89
2019-01-31T12:01:41.529Z,3.85
2019-01-31T12:02:41.478Z,3.85
2019-01-31T12:04:41.379Z,3.78
2019-01-31T12:05:41.326Z,3.85
2019-01-31T12:06:41.282Z,3.81
2019-01-31T12:07:41.234Z,3.84
2019-01-31T12:08:41.178Z,3.81
2019-01-31T12:09:41.126Z,3.82
2019-01-31T12:10:41.079Z,3.77
2019-01-31T12:11:41.031Z,3.85
2019-01-31T12:12:43.760Z,3.78
2019-01-31T12:13:40.932Z,3.76
2019-01-31T12:14:40.883Z,3.73
2019-01-31T12:15:40.835Z,3.70
2019-01-31T12:16:40.789Z,3.73
2019-01-31T12:17:40.725Z,3.67
2019-01-31T12:18:40.676Z,3.63
2019-01-31T12:19:40.628Z,3.67
2019-01-31T12:20:40.580Z,3.59
2019-01-31T12:21:40.527Z,3.63
2019-01-31T12:22:40.479Z,3.59
2019-01-31T12:23:40.425Z,3.48
2019-01-31T12:24:40.383Z,3.49
2019-01-31T12:25:40.327Z,3.46
2019-01-31T12:26:40.282Z,3.49
2019-01-31T12:27:40.224Z,3.52
2019-01-31T12:28:40.180Z,3.50
2019-01-31T12:29:40.130Z,3.50
2019-01-31T12:30:40.075Z,3.49
2019-01-31T12:31:40.028Z,3.50
2019-01-31T12:32:39.976Z,3.53
2019-01-31T12:33:39.924Z,3.45
2019-01-31T12:34:39.873Z,3.49
2019-01-31T12:35:39.829Z,3.52
2019-01-31T12:36:39.783Z,3.45
2019-01-31T12:37:39.725Z,3.45
2019-01-31T12:38:39.677Z,3.49
2019-01-31T12:39:39.626Z,3.43
2019-01-31T12:40:39.573Z,3.49
2019-01-31T12:41:39.522Z,3.53
2019-01-31T12:42:39.471Z,3.56
2019-01-31T12:43:39.428Z,3.55
2019-01-31T12:44:39.370Z,3.58
2019-01-31T12:45:39.329Z,3.61
2019-01-31T12:46:39.278Z,3.59
2019-01-31T12:47:39.221Z,3.58
2019-01-31T12:48:39.171Z,3.56
2019-01-31T12:49:39.124Z,3.58
2019-01-31T12:50:39.069Z,3.53
2019-01-31T12:51:39.029Z,3.56
2019-01-31T12:52:38.977Z,3.63
2019-01-31T12:53:38.920Z,3.59
2019-01-31T12:54:38.911Z,3.63
2019-01-31T12:55:38.845Z,3.63
2019-01-31T12:56:38.778Z,3.61
2019-01-31T12:57:38.735Z,3.58
2019-01-31T12:58:38.677Z,3.49
2019-01-31T12:59:38.622Z,3.55
2019-01-31T13:00:38.571Z,3.53
2019-01-31T13:01:38.525Z,3.52
2019-01-31T13:02:38.474Z,3.41
2019-01-31T13:03:38.421Z,3.45
2019-01-31T13:04:38.369Z,3.48
2019-01-31T13:05:38.316Z,3.45
2019-01-31T13:06:38.356Z,3.50
2019-01-31T13:07:38.216Z,3.49
2019-01-31T13:08:38.167Z,3.52
2019-01-31T13:09:38.119Z,3.45
2019-01-31T13:10:38.066Z,3.37
2019-01-31T13:11:38.110Z,3.41
2019-01-31T13:12:48.412Z,3.40